Harbor Springs, Michigan
Current Conditions -  °F | °C
As of 4:14 AM on Wednesday 22 Oct 2014 (Local Time) from KMGN Reporting Station
Clear Clear  
Wind Chill: -1°   Ceiling: Unl
Heat Index: -1°   Visibility: 10mi
Dew Point: -2°   Wind: 0mph
Humidity: 93%   Direction: NA
Pressure: 30.34"   Gusts: NA
Location:  45.43°N, 84.99°W
Report Text: KMGN 220814Z AUTO 00000KT 10SM CLR M01/M02 A3034 RMK AO2 T10101020
Loading
Personal Weather Stations






























Interactive Weather Map
Tropical Storm Tracking
New forecast layout! Learn more

10-Day Weather Forecast

Advertisements
Track Severe Weather on mobile